Capitol Logistics 782


RKSI
Incheon International Airport
Seoul, KR
VVNB
Noi Bai International Airport
Hanoi, VN

Activity Log

Date Flight Route Aircraft Duration
No Flights Yet

Route Details

Aircraft Information
Primary: Boeing 767-300BDSF
Backup: Not Available
Route Data
Distance: 1449nm
Sched. Duration: 5h 09m
Avg. Duration: 0h 00m (-510m)
Times Flown: 0
Recm'd Route: BOPTA1K BOPTA Z51 BEDES Y711 PONIK A593 PUD A599 JTN A599 PLT A599 GYA R474 LON R474 NOB
Planned Altitude: 34,000ft
Origin Wx: RKSI 231400Z 18006KT CAVOK 03/M02 Q1027 NOSIG
Dest. Wx: VVNB 231400Z 15006KT CAVOK 21/15 Q1021 NOSIG
Notes:

Financial History
Total Freight: 0lbs
Average Load: 0lbs/flt
Fuel Used: 0lbs
Avg. Fuel Used: 0lbs/flt
Fuel Expense: $0
Avg. Fuel Expense: $0
Avg. Fuel Cost: $0/lbs
Total Gross Income: $0
Pilot Pay: $0
Total Expenses: $0
Total Revenue: $0
Average Revenue: $0